createdAt,value
2019-02-22T00:03:31.353Z,99.90
2019-02-22T00:08:35.297Z,99.90
2019-02-22T00:13:39.670Z,99.90
2019-02-22T00:18:43.556Z,99.90
2019-02-22T00:23:47.629Z,99.90
2019-02-22T00:28:51.644Z,99.90
2019-02-22T00:33:55.712Z,99.90
2019-02-22T00:38:59.834Z,99.90
2019-02-22T00:44:04.000Z,99.90
2019-02-22T00:49:08.324Z,99.90
2019-02-22T00:54:12.349Z,99.90
2019-02-22T00:59:16.224Z,99.90
2019-02-22T01:04:20.132Z,99.90
2019-02-22T01:09:24.348Z,99.90
2019-02-22T01:14:28.115Z,99.90
2019-02-22T01:19:32.411Z,99.90
2019-02-22T01:24:37.118Z,99.90
2019-02-22T01:29:41.177Z,99.90
2019-02-22T01:34:45.046Z,99.90
2019-02-22T01:39:48.986Z,99.90
2019-02-22T01:44:54.699Z,99.90
2019-02-22T01:49:58.592Z,99.90
2019-02-22T01:55:02.922Z,99.90
2019-02-22T02:00:06.957Z,99.90
2019-02-22T02:05:10.855Z,99.90
2019-02-22T02:10:14.842Z,99.90
2019-02-22T02:15:18.608Z,99.90
2019-02-22T02:20:22.871Z,99.90
2019-02-22T02:25:26.972Z,99.90
2019-02-22T02:30:31.027Z,99.90
2019-02-22T02:35:34.997Z,99.90
2019-02-22T02:40:38.733Z,99.90
2019-02-22T02:45:42.450Z,99.90
2019-02-22T02:50:46.182Z,99.90
2019-02-22T02:55:49.929Z,99.90
2019-02-22T03:00:53.652Z,99.90
2019-02-22T03:06:15.307Z,99.90
2019-02-22T03:11:21.011Z,99.90
2019-02-22T03:16:24.694Z,99.90
2019-02-22T03:21:28.379Z,99.90
2019-02-22T03:26:32.057Z,99.90
2019-02-22T03:31:35.794Z,99.90
2019-02-22T03:36:39.549Z,99.90
2019-02-22T03:41:43.496Z,99.90
2019-02-22T03:46:47.454Z,99.90
2019-02-22T03:51:51.121Z,99.90
2019-02-22T03:56:54.872Z,99.90
2019-02-22T04:01:58.558Z,99.90
2019-02-22T04:07:02.542Z,99.90
2019-02-22T04:12:06.377Z,99.90
2019-02-22T04:17:11.515Z,99.90
2019-02-22T04:22:15.332Z,99.90
2019-02-22T04:27:19.024Z,99.90
2019-02-22T04:32:22.987Z,99.90
2019-02-22T04:37:26.823Z,99.90
2019-02-22T04:42:31.168Z,99.90
2019-02-22T04:47:35.015Z,99.90
2019-02-22T04:52:38.679Z,99.90
2019-02-22T04:57:42.358Z,99.90
2019-02-22T05:02:46.127Z,99.90
2019-02-22T05:07:49.944Z,99.90
2019-02-22T05:12:53.621Z,99.90
2019-02-22T05:17:57.320Z,99.90
2019-02-22T05:23:04.409Z,99.90
2019-02-22T05:28:06.571Z,99.90
2019-02-22T05:33:11.875Z,99.90
2019-02-22T05:38:15.686Z,99.90
2019-02-22T05:43:19.426Z,99.90
2019-02-22T05:48:25.371Z,99.90
2019-02-22T05:53:28.537Z,99.90
2019-02-22T05:58:32.725Z,99.90
2019-02-22T06:03:36.394Z,99.90
2019-02-22T06:08:40.078Z,99.90
2019-02-22T06:13:43.835Z,99.90
2019-02-22T06:18:47.509Z,99.90
2019-02-22T06:23:51.192Z,99.90
2019-02-22T06:28:54.949Z,99.90
2019-02-22T06:33:59.037Z,99.90
2019-02-22T06:39:03.278Z,99.90
2019-02-22T06:44:07.124Z,99.90
2019-02-22T06:49:10.823Z,99.90
2019-02-22T06:54:14.560Z,99.90
2019-02-22T06:59:18.892Z,99.90
2019-02-22T07:04:22.599Z,99.90
2019-02-22T07:09:26.321Z,99.90
2019-02-22T07:14:30.301Z,99.90
2019-02-22T07:19:34.005Z,99.90
2019-02-22T07:24:37.689Z,99.90
2019-02-22T07:29:41.440Z,99.90
2019-02-22T07:34:45.475Z,99.90
2019-02-22T07:39:49.457Z,99.90
2019-02-22T07:44:53.384Z,99.90
2019-02-22T07:49:57.079Z,99.90
2019-02-22T07:55:00.755Z,99.90
2019-02-22T08:00:06.700Z,99.90
2019-02-22T08:05:10.981Z,99.90
2019-02-22T08:10:14.841Z,99.90
2019-02-22T08:15:18.780Z,99.90
2019-02-22T08:20:22.580Z,99.90
2019-02-22T08:25:26.224Z,99.90
2019-02-22T08:30:29.901Z,99.90
2019-02-22T08:35:33.610Z,99.90
2019-02-22T08:40:37.631Z,99.90
2019-02-22T08:45:41.321Z,99.90
2019-02-22T08:50:45.474Z,99.90
2019-02-22T08:55:49.714Z,99.90
2019-02-22T09:00:53.416Z,99.90
2019-02-22T09:05:58.181Z,99.80
2019-02-22T09:11:02.104Z,99.90
2019-02-22T09:16:05.802Z,99.30
2019-02-22T09:21:09.492Z,98.40
2019-02-22T09:26:13.202Z,98.20
2019-02-22T09:31:16.893Z,98.80
2019-02-22T09:36:20.676Z,99.50
2019-02-22T09:41:24.753Z,98.50
2019-02-22T09:46:28.456Z,98.30
2019-02-22T09:51:32.420Z,96.80
2019-02-22T09:56:36.112Z,96.00
2019-02-22T10:01:39.880Z,96.00
2019-02-22T10:06:43.898Z,95.90
2019-02-22T10:11:48.249Z,96.30
2019-02-22T10:16:52.320Z,97.40
2019-02-22T10:21:57.626Z,97.30
2019-02-22T10:27:01.825Z,97.80
2019-02-22T10:32:05.613Z,98.20
2019-02-22T10:37:09.393Z,98.50
2019-02-22T10:42:13.940Z,98.50
2019-02-22T10:47:17.775Z,98.20
2019-02-22T10:52:21.571Z,98.20
2019-02-22T10:57:25.521Z,98.20
2019-02-22T11:02:31.244Z,98.00
2019-02-22T11:07:37.133Z,98.40
2019-02-22T11:12:40.136Z,98.80
2019-02-22T11:17:44.153Z,98.80
2019-02-22T11:22:48.037Z,98.50
2019-02-22T11:27:51.798Z,99.00
2019-02-22T11:32:55.567Z,98.70
2019-02-22T11:37:59.357Z,99.10
2019-02-22T11:43:03.166Z,99.10
2019-02-22T11:48:09.370Z,99.40
2019-02-22T11:53:13.128Z,99.00
2019-02-22T11:58:17.118Z,98.80
2019-02-22T12:03:24.579Z,98.20
2019-02-22T12:08:26.497Z,98.30
2019-02-22T12:13:32.009Z,98.30
2019-02-22T12:18:36.669Z,99.00
2019-02-22T12:23:40.574Z,97.80
2019-02-22T12:28:44.818Z,97.20
2019-02-22T12:33:48.789Z,97.30
2019-02-22T12:38:52.573Z,96.90
2019-02-22T12:43:56.591Z,96.70
2019-02-22T12:49:00.302Z,96.70
2019-02-22T12:54:04.614Z,97.10
2019-02-22T12:59:08.869Z,97.60
2019-02-22T13:04:12.625Z,96.50
2019-02-22T13:09:16.690Z,95.70
2019-02-22T13:14:20.640Z,95.90
2019-02-22T13:19:24.343Z,95.20
2019-02-22T13:24:28.021Z,94.90
2019-02-22T13:29:31.768Z,93.70
2019-02-22T13:34:35.536Z,92.50
2019-02-22T13:39:39.297Z,92.10
2019-02-22T13:44:43.321Z,87.20
2019-02-22T13:49:47.106Z,82.10
2019-02-22T13:54:50.791Z,82.50
2019-02-22T13:59:54.494Z,84.40
2019-02-22T14:04:58.257Z,86.20
2019-02-22T14:10:02.000Z,88.20
2019-02-22T14:15:06.506Z,85.30
2019-02-22T14:20:10.670Z,72.30
2019-02-22T14:25:14.638Z,53.00
2019-02-22T14:30:19.213Z,48.10
2019-02-22T14:35:24.581Z,44.00
2019-02-22T14:40:28.528Z,45.70
2019-02-22T14:45:32.661Z,51.40
2019-02-22T14:50:36.332Z,70.10
2019-02-22T14:55:45.099Z,83.80
2019-02-22T15:00:48.859Z,91.90
2019-02-22T15:05:52.772Z,92.00
2019-02-22T15:10:56.471Z,85.20
2019-02-22T15:16:25.666Z,73.50
2019-02-22T15:21:29.525Z,60.50
2019-02-22T15:26:33.628Z,52.50
2019-02-22T15:31:37.343Z,49.90
2019-02-22T15:36:45.436Z,49.60
2019-02-22T15:42:00.127Z,51.40
2019-02-22T15:47:31.847Z,59.20
2019-02-22T15:53:15.918Z,70.60
2019-02-22T15:58:34.146Z,80.90
2019-02-22T16:03:55.249Z,85.30
2019-02-22T16:09:05.383Z,89.20
2019-02-22T16:14:09.440Z,90.00
2019-02-22T16:19:13.416Z,91.10
2019-02-22T16:24:17.517Z,91.90
2019-02-22T16:29:21.177Z,92.40
2019-02-22T16:34:25.085Z,92.20
2019-02-22T16:39:28.897Z,92.40
2019-02-22T16:44:32.897Z,92.90
2019-02-22T16:49:36.967Z,93.40
2019-02-22T16:54:41.177Z,94.30
2019-02-22T16:59:44.898Z,94.40
2019-02-22T17:04:48.660Z,94.90
2019-02-22T17:09:52.425Z,94.70
2019-02-22T17:14:56.135Z,95.20
2019-02-22T17:19:59.901Z,95.50
2019-02-22T17:25:05.407Z,96.40
2019-02-22T17:30:11.315Z,97.00
2019-02-22T17:35:16.605Z,97.20
2019-02-22T17:40:21.603Z,97.10
2019-02-22T17:46:00.109Z,97.30
2019-02-22T17:51:04.451Z,96.90
2019-02-22T17:56:08.216Z,96.90
2019-02-22T18:01:12.512Z,96.80
2019-02-22T18:06:16.292Z,96.80
2019-02-22T18:11:20.160Z,97.10
2019-02-22T18:16:24.213Z,97.40
2019-02-22T18:21:27.976Z,97.60
2019-02-22T18:26:31.813Z,97.90
2019-02-22T18:31:35.872Z,98.60
2019-02-22T18:36:40.608Z,98.10
2019-02-22T18:41:44.289Z,98.10
2019-02-22T18:46:48.090Z,98.40
2019-02-22T18:51:51.760Z,97.80
2019-02-22T18:56:55.450Z,96.30
2019-02-22T19:01:59.154Z,96.50
2019-02-22T19:07:02.901Z,96.70
2019-02-22T19:12:06.659Z,96.80
2019-02-22T19:17:10.349Z,96.50
2019-02-22T19:22:14.069Z,95.90
2019-02-22T19:27:17.847Z,94.80
2019-02-22T19:32:21.568Z,93.10
2019-02-22T19:37:25.607Z,93.40
2019-02-22T19:42:29.492Z,93.40
2019-02-22T19:47:41.326Z,93.40
2019-02-22T19:52:38.535Z,93.10
2019-02-22T19:57:42.288Z,92.60
2019-02-22T20:02:46.032Z,92.10
2019-02-22T20:07:49.768Z,92.60
2019-02-22T20:12:53.451Z,93.30
2019-02-22T20:17:57.131Z,94.20
2019-02-22T20:23:00.865Z,94.70
2019-02-22T20:28:04.525Z,95.20
2019-02-22T20:33:08.448Z,95.40
2019-02-22T20:38:12.571Z,95.90
2019-02-22T20:43:16.837Z,97.40
2019-02-22T20:48:21.583Z,98.10
2019-02-22T20:53:26.363Z,98.90
2019-02-22T20:58:30.513Z,99.10
2019-02-22T21:03:36.292Z,99.60
2019-02-22T21:08:41.800Z,99.40
2019-02-22T21:13:45.689Z,99.30
2019-02-22T21:18:49.441Z,99.30
2019-02-22T21:23:53.131Z,99.30
2019-02-22T21:28:56.841Z,99.40
2019-02-22T21:34:00.769Z,99.40
2019-02-22T21:39:04.839Z,99.10
2019-02-22T21:44:08.588Z,99.60
2019-02-22T21:49:12.658Z,99.40
2019-02-22T21:54:16.425Z,99.20
2019-02-22T21:59:20.567Z,98.90
2019-02-22T22:04:24.622Z,99.00
2019-02-22T22:09:28.351Z,99.20
2019-02-22T22:14:32.057Z,98.70
2019-02-22T22:19:35.763Z,98.60
2019-02-22T22:24:39.809Z,98.40
2019-02-22T22:29:43.537Z,98.10
2019-02-22T22:34:47.391Z,97.80
2019-02-22T22:39:51.380Z,97.30
2019-02-22T22:44:55.120Z,97.50
2019-02-22T22:49:59.441Z,96.90
2019-02-22T22:55:03.144Z,95.80
2019-02-22T23:00:40.368Z,95.50
2019-02-22T23:05:44.098Z,95.10
2019-02-22T23:10:48.593Z,94.80
2019-02-22T23:15:52.384Z,94.80
2019-02-22T23:20:56.411Z,95.20
2019-02-22T23:26:00.110Z,95.80
2019-02-22T23:31:03.837Z,96.50
2019-02-22T23:36:07.758Z,97.10
2019-02-22T23:41:11.448Z,96.50
2019-02-22T23:46:15.460Z,96.50
2019-02-22T23:51:19.153Z,96.50
2019-02-22T23:56:22.869Z,97.10
